Time;durP1;ratioP1;P1;durP2;ratioP2;P2;SDS_P1;SDS_P2;PMS_P1;PMS_P2;Temp;Humidity;BMP_temperature;BMP_pressure;BME280_temperature;BME280_humidity;BME280_pressure;Samples;Min_cycle;Max_cycle;Signal;HPM_P1;HPM_P2
2020/12/02 00:01:54;;;;;;;0.60;0.50;;;;;;;0.07;92.35;101751.09;5036744;28;20439;-70
2020/12/02 00:04:21;;;;;;;0.80;0.80;;;;;;;0.06;91.87;101749.44;5036444;28;20471;-70
2020/12/02 00:06:50;;;;;;;2.97;0.93;;;;;;;0.06;92.04;101750.25;5036700;28;20465;-70
2020/12/02 00:09:19;;;;;;;0.60;0.60;;;;;;;0.12;91.68;101760.09;5036649;28;20447;-71
2020/12/02 00:11:47;;;;;;;0.77;0.77;;;;;;;0.25;90.97;101756.63;5036586;28;20485;-71
2020/12/02 00:14:26;;;;;;;2.80;0.67;;;;;;;0.23;91.69;101756.84;5036582;28;20493;-70
2020/12/02 00:16:52;;;;;;;0.73;0.63;;;;;;;0.30;91.38;101761.34;5036557;28;20469;-70
2020/12/02 00:19:19;;;;;;;1.40;0.63;;;;;;;0.25;91.38;101754.78;5036348;28;20491;-71
2020/12/02 00:22:00;;;;;;;1.33;0.60;;;;;;;0.19;91.81;101755.63;5036321;28;20478;-70
2020/12/02 00:24:27;;;;;;;1.50;1.40;;;;;;;0.03;92.56;101760.50;5036462;28;20407;-70
2020/12/02 00:26:53;;;;;;;1.47;0.87;;;;;;;0.12;91.39;101760.09;5036006;28;20439;-70
2020/12/02 00:29:20;;;;;;;1.53;1.43;;;;;;;0.03;90.70;101766.63;5035614;28;20506;-70
2020/12/02 00:31:46;;;;;;;0.70;0.70;;;;;;;-0.12;91.57;101766.00;5035976;28;20469;-70
2020/12/02 00:34:12;;;;;;;0.50;0.50;;;;;;;-0.22;91.93;101755.75;5036215;28;20467;-70
2020/12/02 00:36:39;;;;;;;2.20;2.00;;;;;;;-0.09;91.31;101760.25;5036174;28;20201;-70
2020/12/02 00:39:06;;;;;;;5.60;1.47;;;;;;;-0.06;91.26;101757.19;5035664;28;20469;-70
2020/12/02 00:41:32;;;;;;;0.83;0.70;;;;;;;-0.07;90.85;101758.22;5036027;28;20478;-70
2020/12/02 00:43:58;;;;;;;0.87;0.83;;;;;;;-0.15;90.20;101759.22;5036027;28;20443;-70
2020/12/02 00:46:25;;;;;;;0.77;0.77;;;;;;;-0.16;90.25;101767.44;5035666;28;20478;-70
2020/12/02 00:48:53;;;;;;;0.40;0.40;;;;;;;-0.18;90.64;101759.63;5035608;28;20467;-70
2020/12/02 00:51:19;;;;;;;3.53;2.70;;;;;;;-0.24;91.08;101764.94;5035967;28;20227;-71
2020/12/02 00:53:46;;;;;;;0.60;0.60;;;;;;;-0.27;90.87;101760.81;5035862;28;20204;-70
2020/12/02 00:56:14;;;;;;;1.60;1.23;;;;;;;-0.20;90.61;101759.00;5035551;28;20525;-70
2020/12/02 00:58:47;;;;;;;0.63;0.63;;;;;;;-0.20;89.96;101755.53;5035689;28;20443;-70
2020/12/02 01:01:17;;;;;;;0.73;0.73;;;;;;;-0.21;89.97;101759.22;5035669;28;20503;-70
2020/12/02 01:03:47;;;;;;;0.50;0.50;;;;;;;-0.41;89.60;101761.81;5035722;28;20447;-70
2020/12/02 01:06:15;;;;;;;1.03;1.03;;;;;;;-0.37;90.38;101765.72;5034795;28;20830;-70
2020/12/02 01:08:44;;;;;;;2.30;1.90;;;;;;;-0.24;90.39;101764.94;5035460;28;20439;-70
2020/12/02 01:11:15;;;;;;;6.28;1.63;;;;;;;-0.33;91.66;101762.44;5035565;28;20496;-70
2020/12/02 01:13:41;;;;;;;0.60;0.60;;;;;;;-0.32;91.62;101757.94;5035247;28;20251;-70
2020/12/02 01:16:09;;;;;;;0.50;0.50;;;;;;;-0.33;91.93;101753.66;5035438;28;20517;-70
2020/12/02 01:18:36;;;;;;;0.60;0.50;;;;;;;-0.27;92.88;101755.50;5035366;28;20498;-70
2020/12/02 01:21:12;;;;;;;0.63;0.60;;;;;;;-0.32;92.73;101764.09;5034944;28;20954;-69
2020/12/02 01:23:39;;;;;;;0.50;0.50;;;;;;;-0.36;93.25;101762.84;5035380;28;20431;-70
2020/12/02 01:26:06;;;;;;;0.50;0.50;;;;;;;-0.24;92.80;101770.25;5034982;28;20443;-70
2020/12/02 01:28:35;;;;;;;1.43;0.80;;;;;;;-0.30;92.50;101767.38;5035207;28;20423;-70
2020/12/02 01:31:02;;;;;;;1.90;0.75;;;;;;;-0.32;93.29;101766.75;5034856;28;20471;-70
2020/12/02 01:33:28;;;;;;;0.40;0.30;;;;;;;-0.30;92.81;101770.03;5035179;28;20255;-70
2020/12/02 01:35:55;;;;;;;0.93;0.77;;;;;;;-0.28;92.44;101772.50;5034941;28;20995;-70
2020/12/02 01:38:32;;;;;;;2.50;0.77;;;;;;;-0.29;92.46;101768.19;5034850;28;20432;-70
2020/12/02 01:40:58;;;;;;;0.50;0.40;;;;;;;-0.38;90.89;101766.72;5034668;28;20475;-69
2020/12/02 01:43:25;;;;;;;1.07;1.03;;;;;;;-0.53;90.87;101772.22;5034989;28;20505;-70
2020/12/02 01:45:54;;;;;;;1.57;1.47;;;;;;;-0.62;91.15;101765.38;5035137;28;20521;-70
2020/12/02 01:48:47;;;;;;;0.70;0.70;;;;;;;-0.51;91.04;101767.50;5034821;28;20435;-69
2020/12/02 01:51:36;;;;;;;0.40;0.40;;;;;;;-0.48;91.10;101764.44;5034864;28;20420;-70
2020/12/02 01:54:11;;;;;;;2.47;2.23;;;;;;;-0.56;89.94;101752.13;5034464;28;20451;-70
2020/12/02 01:56:44;;;;;;;0.50;0.40;;;;;;;-0.60;89.85;101755.38;5034329;28;20493;-70
2020/12/02 01:59:19;;;;;;;0.50;0.40;;;;;;;-0.70;89.49;101752.28;5034497;28;20494;-70
2020/12/02 02:01:57;;;;;;;0.40;0.30;;;;;;;-0.80;90.37;101761.44;5034344;28;20212;-70
2020/12/02 02:04:37;;;;;;;0.70;0.70;;;;;;;-0.79;89.85;101763.06;5034708;28;20423;-70
2020/12/02 02:07:08;;;;;;;0.40;0.30;;;;;;;-0.83;90.36;101769.81;5034230;28;20420;-71
2020/12/02 02:09:35;;;;;;;1.13;0.95;;;;;;;-0.78;90.34;101770.03;5034157;28;20463;-71
2020/12/02 02:12:23;;;;;;;0.40;0.30;;;;;;;-0.69;89.40;101767.22;5034383;28;20200;-71
2020/12/02 02:15:02;;;;;;;1.13;0.50;;;;;;;-0.81;90.80;101764.28;5034658;28;20193;-70
2020/12/02 02:17:28;;;;;;;0.83;0.70;;;;;;;-0.68;91.04;101763.53;5034338;28;20184;-71
2020/12/02 02:19:54;;;;;;;0.70;0.70;;;;;;;-0.78;91.72;101764.72;5033981;28;20463;-71
2020/12/02 02:22:21;;;;;;;0.40;0.40;;;;;;;-0.84;91.30;101760.19;5033925;28;20924;-70
2020/12/02 02:24:49;;;;;;;0.80;0.80;;;;;;;-0.72;91.33;101762.28;5034387;28;20204;-70
2020/12/02 02:27:18;;;;;;;0.60;0.50;;;;;;;-0.79;90.73;101765.72;5034349;28;20923;-71
2020/12/02 02:29:46;;;;;;;0.50;0.50;;;;;;;-0.85;90.09;101757.69;5034266;28;20224;-71
2020/12/02 02:32:15;;;;;;;0.65;0.65;;;;;;;-0.77;90.19;101754.88;5033476;28;20542;-70
2020/12/02 02:34:47;;;;;;;6.40;1.05;;;;;;;-0.77;89.96;101750.38;5033901;28;20279;-70
2020/12/02 02:37:15;;;;;;;2.00;0.80;;;;;;;-0.78;89.66;101763.88;5033912;28;20207;-70
2020/12/02 02:39:41;;;;;;;1.87;1.70;;;;;;;-0.91;89.75;101748.69;5033429;28;20991;-70
2020/12/02 02:42:22;;;;;;;0.70;0.60;;;;;;;-0.97;89.91;101749.47;5033358;28;21003;-70
2020/12/02 02:44:49;;;;;;;3.08;0.93;;;;;;;-1.02;90.33;101755.38;5033526;28;20228;-70
2020/12/02 02:47:15;;;;;;;4.63;1.40;;;;;;;-1.04;90.72;101749.41;5033725;28;20258;-69
2020/12/02 02:49:42;;;;;;;0.77;0.67;;;;;;;-0.96;91.99;101751.13;5033602;28;20221;-70
2020/12/02 02:52:08;;;;;;;0.50;0.45;;;;;;;-0.96;91.71;101748.44;5033618;28;20427;-70
2020/12/02 02:54:35;;;;;;;3.05;1.10;;;;;;;-1.01;91.66;101740.25;5033207;28;20204;-70
2020/12/02 02:57:01;;;;;;;4.83;1.63;;;;;;;-0.90;91.51;101749.50;5033069;28;20263;-69
2020/12/02 02:59:27;;;;;;;1.52;1.42;;;;;;;-0.89;91.68;101741.31;5033388;28;20525;-69
2020/12/02 03:01:54;;;;;;;5.57;1.25;;;;;;;-0.80;91.63;101750.81;5033469;28;20255;-70
2020/12/02 03:04:21;;;;;;;0.40;0.30;;;;;;;-0.78;91.81;101748.75;5033140;28;20208;-70
2020/12/02 03:06:48;;;;;;;0.40;0.30;;;;;;;-0.73;91.44;101750.00;5033053;28;20208;-69
2020/12/02 03:09:15;;;;;;;0.90;0.90;;;;;;;-0.76;91.24;101754.69;5032894;28;20509;-70
2020/12/02 03:11:41;;;;;;;1.63;1.53;;;;;;;-0.78;91.23;101751.41;5033039;28;20439;-70
2020/12/02 03:14:09;;;;;;;1.02;1.02;;;;;;;-0.82;90.75;101744.03;5033271;28;20443;-70
2020/12/02 03:16:40;;;;;;;0.55;0.55;;;;;;;-0.78;90.71;101747.94;5033271;28;20258;-70
2020/12/02 03:19:13;;;;;;;0.60;0.60;;;;;;;-0.87;89.83;101754.44;5032895;28;20279;-70
2020/12/02 03:21:39;;;;;;;0.70;0.65;;;;;;;-0.96;89.31;101742.31;5033225;28;20250;-70
2020/12/02 03:24:08;;;;;;;0.77;0.70;;;;;;;-1.04;90.38;101752.09;5033197;28;20258;-70
2020/12/02 03:26:34;;;;;;;2.90;0.73;;;;;;;-1.01;89.82;101748.22;5032846;28;20932;-70
2020/12/02 03:29:01;;;;;;;1.23;0.73;;;;;;;-1.01;89.33;101737.59;5032627;28;20489;-70
2020/12/02 03:31:27;;;;;;;0.50;0.47;;;;;;;-1.08;89.40;101740.19;5033150;28;20497;-70
2020/12/02 03:33:53;;;;;;;0.50;0.50;;;;;;;-1.10;89.13;101739.56;5033057;28;20254;-70
2020/12/02 03:36:21;;;;;;;1.40;1.33;;;;;;;-1.19;89.25;101731.97;5032692;28;20806;-70
2020/12/02 03:38:48;;;;;;;0.60;0.60;;;;;;;-1.17;88.89;101737.88;5032632;28;20845;-70
2020/12/02 03:41:15;;;;;;;0.70;0.63;;;;;;;-1.17;89.16;101743.19;5032618;28;20547;-70
2020/12/02 03:43:41;;;;;;;0.50;0.50;;;;;;;-1.24;90.13;101726.38;5033008;28;20204;-70
2020/12/02 03:46:08;;;;;;;0.40;0.40;;;;;;;-1.13;90.01;101728.50;5032933;28;20481;-70
2020/12/02 03:48:34;;;;;;;1.83;0.70;;;;;;;-1.14;88.96;101726.88;5032884;28;20494;-70
2020/12/02 03:51:01;;;;;;;0.40;0.40;;;;;;;-1.24;89.01;101719.22;5032865;28;20490;-70
2020/12/02 03:53:28;;;;;;;0.63;0.60;;;;;;;-1.22;89.00;101719.06;5044819;22;20227;-82
2020/12/02 03:55:54;;;;;;;0.43;0.43;;;;;;;-1.24;89.11;101721.88;5037070;28;20204;-82
2020/12/02 03:58:21;;;;;;;0.60;0.57;;;;;;;-1.33;89.25;101725.72;5036487;28;20287;-81
2020/12/02 04:00:47;;;;;;;0.50;0.43;;;;;;;-1.39;91.17;101729.97;5064977;22;20478;-67
2020/12/02 04:03:13;;;;;;;0.50;0.50;;;;;;;-1.34;91.28;101722.22;5025190;28;20500;-69
2020/12/02 04:05:39;;;;;;;0.40;0.40;;;;;;;-1.33;91.21;101718.59;5032859;28;20791;-69
2020/12/02 04:08:06;;;;;;;0.70;0.68;;;;;;;-1.31;90.78;101721.03;5032422;28;20489;-68
2020/12/02 04:10:33;;;;;;;0.80;0.80;;;;;;;-1.22;90.15;101724.38;5032888;28;20232;-69
2020/12/02 04:13:00;;;;;;;0.40;0.40;;;;;;;-1.14;90.03;101732.19;5032526;28;20263;-68
2020/12/02 04:15:26;;;;;;;2.38;2.17;;;;;;;-1.08;89.62;101726.91;5032567;28;20681;-68
2020/12/02 04:17:53;;;;;;;1.75;1.08;;;;;;;-1.11;90.21;101727.28;5032817;28;20231;-69
2020/12/02 04:20:20;;;;;;;0.40;0.30;;;;;;;-1.13;90.47;101720.53;5032766;28;20243;-69
2020/12/02 04:22:48;;;;;;;0.98;0.60;;;;;;;-1.11;90.22;101729.13;5032458;28;20228;-69
2020/12/02 04:25:14;;;;;;;0.40;0.40;;;;;;;-1.12;90.05;101725.66;5032531;28;20204;-69
2020/12/02 04:27:41;;;;;;;0.47;0.40;;;;;;;-1.19;90.44;101713.34;5032765;28;20236;-69
2020/12/02 04:30:09;;;;;;;0.40;0.40;;;;;;;-1.10;89.88;101717.50;5032424;28;20470;-68
2020/12/02 04:32:35;;;;;;;0.50;0.50;;;;;;;-1.16;89.80;101715.59;5032613;28;20445;-68
2020/12/02 04:35:02;;;;;;;1.77;1.40;;;;;;;-1.28;89.09;101708.19;5032462;28;20205;-69
2020/12/02 04:37:30;;;;;;;0.77;0.77;;;;;;;-1.30;89.59;101707.53;5032621;28;20204;-68
2020/12/02 04:39:56;;;;;;;0.50;0.50;;;;;;;-1.48;89.04;101717.03;5032616;28;20501;-68
2020/12/02 04:42:27;;;;;;;0.40;0.40;;;;;;;-1.53;90.66;101712.28;5034861;28;20225;-68
2020/12/02 04:44:54;;;;;;;0.40;0.30;;;;;;;-1.47;90.82;101708.03;5036197;28;20193;-69
2020/12/02 04:47:29;;;;;;;0.63;0.63;;;;;;;-1.50;89.85;101709.25;5035726;28;20208;-68
2020/12/02 04:49:55;;;;;;;0.40;0.40;;;;;;;-1.42;88.79;101714.41;5035746;28;20231;-69
2020/12/02 04:52:22;;;;;;;1.47;0.80;;;;;;;-1.47;88.34;101716.00;5035851;28;20451;-71
2020/12/02 04:54:49;;;;;;;1.77;1.67;;;;;;;-1.58;88.94;101704.09;5035666;28;20447;-69
2020/12/02 04:57:15;;;;;;;0.50;0.50;;;;;;;-1.55;89.40;101704.53;5035856;28;20208;-69
2020/12/02 04:59:44;;;;;;;0.40;0.40;;;;;;;-1.60;89.17;101700.78;5035898;28;20254;-68
2020/12/02 05:02:24;;;;;;;1.58;1.48;;;;;;;-1.58;89.87;101706.75;5035463;28;20224;-69
2020/12/02 05:04:55;;;;;;;1.95;1.85;;;;;;;-1.62;88.97;101698.34;5035916;28;20193;-69
2020/12/02 05:07:21;;;;;;;0.80;0.67;;;;;;;-1.67;89.38;101705.25;5035753;28;20268;-68
2020/12/02 05:09:57;;;;;;;1.03;1.00;;;;;;;-1.67;89.88;101705.25;5035679;28;20497;-68
2020/12/02 05:12:27;;;;;;;1.70;1.17;;;;;;;-1.72;90.41;101712.97;5035522;28;20447;-68
2020/12/02 05:14:53;;;;;;;1.80;1.07;;;;;;;-1.70;90.61;101702.97;5035266;28;20669;-68
2020/12/02 05:17:23;;;;;;;0.87;0.87;;;;;;;-1.64;91.48;101704.84;5035463;28;20859;-68
2020/12/02 05:20:09;;;;;;;1.67;1.58;;;;;;;-1.54;91.08;101706.16;5035471;28;20572;-69
2020/12/02 05:22:37;;;;;;;2.05;1.25;;;;;;;-1.47;91.85;101703.53;5035095;28;20232;-69
2020/12/02 05:25:05;;;;;;;0.40;0.30;;;;;;;-1.43;91.95;101702.13;5035113;28;20751;-68
2020/12/02 05:27:34;;;;;;;1.37;0.83;;;;;;;-1.29;91.66;101698.53;5035314;28;20648;-69
2020/12/02 05:30:18;;;;;;;2.33;1.73;;;;;;;-1.35;91.05;101688.72;5034956;28;20466;-69
2020/12/02 05:33:14;;;;;;;2.08;1.98;;;;;;;-1.41;91.08;101689.50;5035241;28;20492;-69
2020/12/02 05:35:43;;;;;;;0.40;0.40;;;;;;;-1.38;90.76;101680.31;5034894;28;20231;-69
2020/12/02 05:38:14;;;;;;;1.15;1.05;;;;;;;-1.41;91.14;101689.50;5035091;28;20254;-68
2020/12/02 05:40:40;;;;;;;0.50;0.50;;;;;;;-1.40;91.00;101693.78;5035105;28;20290;-67
2020/12/02 05:43:13;;;;;;;0.40;0.30;;;;;;;-1.46;92.41;101686.59;5034980;28;20282;-68
2020/12/02 05:45:43;;;;;;;2.65;2.05;;;;;;;-1.41;92.37;101686.84;5035027;28;20243;-68
2020/12/02 05:48:16;;;;;;;0.40;0.40;;;;;;;-1.35;91.81;101680.72;5034653;28;20208;-68
2020/12/02 05:50:44;;;;;;;1.52;0.98;;;;;;;-1.37;90.73;101682.78;5034926;28;20427;-68
2020/12/02 05:53:17;;;;;;;2.40;2.30;;;;;;;-1.42;90.09;101684.34;5034138;28;20633;-67
2020/12/02 05:55:44;;;;;;;0.50;0.50;;;;;;;-1.51;90.23;101678.38;5034847;28;20423;-68
2020/12/02 05:58:13;;;;;;;0.70;0.70;;;;;;;-1.54;89.91;101676.13;5034536;28;20196;-67
2020/12/02 06:00:40;;;;;;;1.15;1.08;;;;;;;-1.56;89.25;101680.78;5034924;28;20541;-68
2020/12/02 06:03:11;;;;;;;0.60;0.60;;;;;;;-1.71;89.87;101683.56;5034231;28;20236;-68
2020/12/02 06:05:38;;;;;;;2.65;2.45;;;;;;;-1.66;90.03;101685.63;5034638;28;20185;-69
2020/12/02 06:08:07;;;;;;;1.63;1.52;;;;;;;-1.59;90.52;101682.03;5034559;28;20209;-69
2020/12/02 06:11:19;;;;;;;0.40;0.40;;;;;;;-1.63;91.49;101682.59;5034224;28;20669;-68
2020/12/02 06:13:48;;;;;;;0.40;0.30;;;;;;;-1.71;90.82;101677.44;5034014;28;20289;-68
2020/12/02 06:16:17;;;;;;;0.40;0.30;;;;;;;-1.72;90.28;101675.78;5034109;28;20200;-70
2020/12/02 06:18:44;;;;;;;5.23;1.53;;;;;;;-1.72;90.45;101670.47;5034367;28;20246;-69
2020/12/02 06:21:26;;;;;;;0.40;0.30;;;;;;;-1.74;90.41;101683.13;5033936;28;21061;-70
2020/12/02 06:23:56;;;;;;;6.10;1.48;;;;;;;-1.69;89.87;101676.19;5034268;28;20231;-70
2020/12/02 06:26:35;;;;;;;0.60;0.53;;;;;;;-1.75;90.46;101676.16;5034022;28;20268;-71
2020/12/02 06:29:03;;;;;;;0.85;0.60;;;;;;;-1.74;90.97;101683.13;5034054;28;20905;-71
2020/12/02 06:31:30;;;;;;;0.40;0.30;;;;;;;-1.79;90.86;101681.03;5034101;28;20208;-71
2020/12/02 06:34:00;;;;;;;0.40;0.40;;;;;;;-1.78;90.75;101687.97;5033713;28;20271;-71
2020/12/02 06:36:28;;;;;;;0.70;0.70;;;;;;;-1.85;90.87;101687.94;5034408;28;20212;-71
2020/12/02 06:39:05;;;;;;;0.80;0.80;;;;;;;-1.80;90.18;101676.75;5033732;28;20307;-71
2020/12/02 06:41:37;;;;;;;0.53;0.53;;;;;;;-1.87;89.74;101679.31;5033694;28;20300;-71
2020/12/02 06:44:17;;;;;;;1.05;0.95;;;;;;;-1.88;89.96;101680.34;5033678;28;20796;-71
2020/12/02 06:46:59;;;;;;;0.40;0.30;;;;;;;-1.86;89.76;101674.84;5033998;28;20638;-72
2020/12/02 06:49:29;;;;;;;2.80;1.42;;;;;;;-2.00;90.03;101676.56;5033999;28;20215;-73
2020/12/02 06:51:57;;;;;;;2.85;0.98;;;;;;;-1.99;90.52;101672.91;5033970;28;20204;-68
2020/12/02 06:54:25;;;;;;;0.80;0.80;;;;;;;-1.96;90.42;101664.56;5033725;28;20204;-69
2020/12/02 06:56:59;;;;;;;0.85;0.85;;;;;;;-1.98;90.82;101677.22;5033629;28;20447;-69
2020/12/02 06:59:26;;;;;;;0.63;0.63;;;;;;;-2.02;91.20;101670.63;5033666;28;20196;-69
2020/12/02 07:01:58;;;;;;;0.50;0.50;;;;;;;-1.90;90.99;101673.59;5033158;28;20670;-70
2020/12/02 07:04:27;;;;;;;0.80;0.80;;;;;;;-1.85;90.99;101666.69;5032976;28;20189;-69
2020/12/02 07:07:00;;;;;;;1.55;1.45;;;;;;;-1.88;92.18;101672.38;5033561;28;20447;-69
2020/12/02 07:09:26;;;;;;;1.60;1.35;;;;;;;-1.84;91.81;101672.81;5033583;28;20205;-68
2020/12/02 07:11:57;;;;;;;0.63;0.63;;;;;;;-1.85;92.01;101666.69;5033474;28;20201;-69
2020/12/02 07:14:32;;;;;;;0.40;0.40;;;;;;;-1.76;92.21;101680.66;5033459;28;20281;-69
2020/12/02 07:16:59;;;;;;;1.05;1.05;;;;;;;-1.69;91.74;101676.19;5033386;28;20220;-69
2020/12/02 07:19:30;;;;;;;3.53;2.00;;;;;;;-1.73;91.25;101676.78;5033055;28;20211;-68
2020/12/02 07:22:00;;;;;;;1.88;1.77;;;;;;;-1.67;91.86;101678.69;5033285;28;20519;-69
2020/12/02 07:24:28;;;;;;;0.40;0.40;;;;;;;-1.64;91.95;101680.94;5033364;28;20632;-69
2020/12/02 07:26:55;;;;;;;0.70;0.70;;;;;;;-1.60;91.25;101674.22;5033033;28;20670;-69
2020/12/02 07:29:24;;;;;;;1.50;0.95;;;;;;;-1.59;92.11;101671.41;5032975;28;20208;-68
2020/12/02 07:31:56;;;;;;;2.33;1.80;;;;;;;-1.53;91.67;101667.13;5033181;28;20254;-69
2020/12/02 07:34:22;;;;;;;0.80;0.68;;;;;;;-1.55;91.36;101672.66;5032945;28;20422;-70
2020/12/02 07:36:56;;;;;;;0.60;0.57;;;;;;;-1.65;89.86;101666.03;5033269;28;20630;-70
2020/12/02 07:39:23;;;;;;;0.50;0.50;;;;;;;-1.67;91.09;101678.69;5032961;28;20703;-68
2020/12/02 07:41:57;;;;;;;4.97;1.40;;;;;;;-1.64;90.44;101663.19;5032989;28;20583;-69
2020/12/02 07:44:26;;;;;;;1.83;1.73;;;;;;;-1.67;90.43;101670.72;5032839;28;20185;-70
2020/12/02 07:46:58;;;;;;;0.73;0.73;;;;;;;-1.60;90.53;101668.91;5033130;28;20200;-69
2020/12/02 07:49:24;;;;;;;0.40;0.30;;;;;;;-1.56;90.31;101670.97;5033151;28;20224;-68
2020/12/02 07:52:00;;;;;;;1.27;1.17;;;;;;;-1.62;90.47;101663.81;5033054;28;20196;-69
2020/12/02 07:54:29;;;;;;;0.40;0.40;;;;;;;-1.59;90.94;101663.41;5032864;28;20427;-69
2020/12/02 07:56:56;;;;;;;0.40;0.30;;;;;;;-1.55;91.45;101669.16;5032786;28;20920;-69
2020/12/02 07:59:25;;;;;;;1.40;0.93;;;;;;;-1.51;90.95;101665.09;5032986;28;20196;-69
2020/12/02 08:02:11;;;;;;;1.20;1.17;;;;;;;-1.58;91.04;101667.72;5032438;28;20641;-70
2020/12/02 08:04:58;;;;;;;1.25;1.17;;;;;;;-1.31;90.42;101673.19;5032651;28;20427;-68
2020/12/02 08:07:45;;;;;;;0.73;0.73;;;;;;;-1.23;90.22;101674.88;5033084;28;20199;-69
2020/12/02 08:10:23;;;;;;;1.13;1.13;;;;;;;-1.29;91.58;101671.97;5032995;28;20188;-69
2020/12/02 08:12:50;;;;;;;4.77;1.80;;;;;;;-1.17;91.18;101674.09;5032862;28;20224;-69
2020/12/02 08:15:16;;;;;;;0.60;0.60;;;;;;;-1.07;91.30;101680.69;5033576;28;20856;-69
2020/12/02 08:17:59;;;;;;;1.75;1.42;;;;;;;-1.00;90.84;101664.78;5036660;28;20295;-69
2020/12/02 08:20:31;;;;;;;0.60;0.60;;;;;;;-0.84;90.06;101669.75;5036744;28;20539;-69
2020/12/02 08:23:00;;;;;;;0.68;0.68;;;;;;;-0.91;92.45;101662.78;5036476;28;20517;-69
2020/12/02 08:25:32;;;;;;;0.40;0.40;;;;;;;-0.85;93.29;101668.09;5036137;28;20208;-69
2020/12/02 08:28:07;;;;;;;1.75;1.65;;;;;;;-0.77;93.30;101661.78;5036462;28;20486;-69
2020/12/02 08:30:33;;;;;;;1.07;0.77;;;;;;;-0.67;93.04;101664.06;5036507;28;20192;-69
2020/12/02 08:33:01;;;;;;;1.97;1.70;;;;;;;-0.56;93.15;101653.69;5036232;28;20509;-69
2020/12/02 08:35:33;;;;;;;0.50;0.43;;;;;;;-0.42;92.71;101657.19;5035985;28;20811;-69
2020/12/02 08:38:01;;;;;;;0.50;0.47;;;;;;;-0.31;92.48;101650.44;5036335;28;20801;-69
2020/12/02 08:40:37;;;;;;;0.50;0.50;;;;;;;-0.26;92.69;101643.50;5036201;28;20204;-69
2020/12/02 08:43:26;;;;;;;1.20;1.10;;;;;;;-0.24;92.84;101643.28;5035830;28;20980;-70
2020/12/02 08:45:55;;;;;;;2.80;2.20;;;;;;;-0.24;93.46;101640.63;5036185;28;20486;-69
2020/12/02 08:48:21;;;;;;;0.40;0.40;;;;;;;-0.12;93.89;101635.53;5036066;28;20470;-70
2020/12/02 08:50:48;;;;;;;7.50;2.03;;;;;;;-0.10;93.49;101644.94;5035985;28;20443;-69
2020/12/02 08:53:21;;;;;;;0.40;0.30;;;;;;;-0.07;94.21;101641.88;5035644;28;20520;-70
2020/12/02 08:55:49;;;;;;;0.50;0.45;;;;;;;0.02;94.12;101639.84;5035728;28;20485;-70
2020/12/02 08:58:15;;;;;;;0.83;0.50;;;;;;;-0.04;94.80;101641.47;5035552;28;20260;-70
2020/12/02 09:00:41;;;;;;;0.70;0.70;;;;;;;0.03;95.86;101638.00;5035396;28;20986;-69
2020/12/02 09:03:07;;;;;;;1.73;1.33;;;;;;;0.07;96.21;101633.91;5035384;28;20471;-69
2020/12/02 09:05:34;;;;;;;0.60;0.60;;;;;;;0.16;96.04;101633.47;5035754;28;20439;-69
2020/12/02 09:08:00;;;;;;;1.00;1.00;;;;;;;0.33;95.92;101635.72;5035323;28;20941;-69
2020/12/02 09:10:26;;;;;;;2.10;0.97;;;;;;;0.45;95.85;101636.72;5035684;28;20497;-69
2020/12/02 09:12:53;;;;;;;3.13;1.03;;;;;;;0.55;94.99;101634.44;5035600;28;20455;-70
2020/12/02 09:15:19;;;;;;;0.70;0.60;;;;;;;0.67;95.20;101629.31;5035430;28;20493;-69
2020/12/02 09:17:46;;;;;;;4.90;2.30;;;;;;;0.79;95.11;101632.13;5035319;28;20492;-69
2020/12/02 09:20:12;;;;;;;0.97;0.97;;;;;;;0.94;94.30;101628.19;5035142;28;20588;-69
2020/12/02 09:22:38;;;;;;;1.43;0.90;;;;;;;1.01;94.37;101625.47;5035253;28;20548;-69
2020/12/02 09:25:04;;;;;;;1.73;1.63;;;;;;;1.17;94.11;101618.84;5035412;28;20443;-69
2020/12/02 09:27:31;;;;;;;0.40;0.30;;;;;;;1.24;94.08;101612.44;5034621;28;20486;-70
2020/12/02 09:29:58;;;;;;;2.50;2.30;;;;;;;1.44;93.43;101603.50;5035145;28;20441;-69
2020/12/02 09:32:25;;;;;;;2.13;0.97;;;;;;;1.61;92.87;101609.16;5034859;28;20843;-69
2020/12/02 09:34:51;;;;;;;0.60;0.60;;;;;;;1.72;92.96;101611.09;5035230;28;20803;-69
2020/12/02 09:37:17;;;;;;;3.27;1.53;;;;;;;1.87;92.62;101602.78;5035180;28;20443;-69
2020/12/02 09:39:43;;;;;;;4.73;1.37;;;;;;;1.94;92.28;101603.53;5034822;28;20446;-70
2020/12/02 09:42:24;;;;;;;2.43;2.33;;;;;;;1.97;92.49;101598.59;5034598;28;20487;-70
2020/12/02 09:45:01;;;;;;;0.90;0.90;;;;;;;2.15;91.46;101589.78;5034752;28;20525;-69
2020/12/02 09:47:27;;;;;;;2.63;1.03;;;;;;;2.18;90.79;101600.03;5034658;28;20904;-69
2020/12/02 09:49:53;;;;;;;6.87;1.80;;;;;;;2.21;91.10;101596.94;5034562;28;20445;-69
2020/12/02 09:52:40;;;;;;;10.40;2.63;;;;;;;2.31;90.78;101592.94;5034471;28;20979;-70
2020/12/02 09:55:16;;;;;;;1.67;1.57;;;;;;;2.48;89.87;101594.00;5034447;28;20466;-70
2020/12/02 09:57:42;;;;;;;2.23;2.03;;;;;;;2.46;90.17;101588.03;5034447;28;20451;-70
2020/12/02 10:00:12;;;;;;;1.50;1.23;;;;;;;2.63;89.67;101589.09;5034687;28;20430;-70
2020/12/02 10:03:11;;;;;;;2.10;1.23;;;;;;;2.66;89.74;101582.50;5048759;22;21066;-82
2020/12/02 10:06:09;;;;;;;9.17;2.53;;;;;;;2.82;89.08;101575.69;5048102;28;20819;-82
2020/12/02 10:08:52;;;;;;;3.10;2.90;;;;;;;2.90;89.25;101576.22;5050906;22;20495;-84
2020/12/02 10:11:30;;;;;;;2.40;0.97;;;;;;;3.00;89.53;101575.66;5039368;28;20826;-83
2020/12/02 10:14:16;;;;;;;0.97;0.87;;;;;;;3.14;90.32;101579.78;5039200;28;20431;-83
2020/12/02 10:16:51;;;;;;;1.20;1.10;;;;;;;3.27;90.19;101566.22;5040489;28;20462;-83
2020/12/02 10:19:35;;;;;;;2.40;1.13;;;;;;;3.39;90.86;101568.13;5039917;28;20504;-84
2020/12/02 10:22:21;;;;;;;0.80;0.80;;;;;;;3.50;90.54;101567.34;5041821;28;20471;-83
2020/12/02 10:25:06;;;;;;;0.53;0.53;;;;;;;3.54;89.78;101558.63;5042125;28;20841;-83
2020/12/02 10:28:01;;;;;;;2.27;1.93;;;;;;;3.61;88.55;101555.84;5041857;28;20470;-83
2020/12/02 10:30:29;;;;;;;5.33;1.50;;;;;;;3.74;88.13;101558.31;5041556;28;20777;-82
2020/12/02 10:33:37;;;;;;;2.20;1.80;;;;;;;3.86;88.88;101542.25;5041953;28;20851;-83
2020/12/02 10:36:04;;;;;;;1.83;1.73;;;;;;;3.94;88.73;101539.22;4992685;28;20515;-82
2020/12/02 10:38:36;;;;;;;1.30;0.73;;;;;;;3.91;87.61;101537.00;5040247;28;20478;-83
2020/12/02 10:41:15;;;;;;;2.80;2.43;;;;;;;3.98;86.78;101528.81;5041842;28;20815;-83
2020/12/02 10:43:54;;;;;;;0.70;0.70;;;;;;;3.99;86.00;101520.56;5043098;28;20457;-82
2020/12/02 10:46:33;;;;;;;2.83;2.30;;;;;;;4.01;85.71;101517.66;5043180;28;20439;-83
2020/12/02 10:49:10;;;;;;;1.77;1.67;;;;;;;4.03;85.89;101515.56;5042893;28;20482;-83
2020/12/02 10:51:38;;;;;;;10.30;4.17;;;;;;;4.02;85.88;101508.56;5044719;28;20416;-83
2020/12/02 10:54:13;;;;;;;4.33;3.60;;;;;;;4.16;85.36;101504.59;5041338;28;20456;-83
2020/12/02 10:56:42;;;;;;;80.87;3.67;;;;;;;4.19;84.45;101509.47;5024215;28;20451;-81
2020/12/02 10:59:12;;;;;;;1.53;1.43;;;;;;;4.19;84.55;101496.06;5021997;28;20492;-81
2020/12/02 11:01:40;;;;;;;1.43;1.33;;;;;;;4.16;85.25;101493.88;5021135;28;20920;-81
2020/12/02 11:04:08;;;;;;;1.70;1.40;;;;;;;4.17;84.73;101484.75;5019946;28;20471;-82
2020/12/02 11:07:01;;;;;;;0.80;0.80;;;;;;;4.22;84.62;101482.19;5019314;28;20450;-82
2020/12/02 11:09:45;;;;;;;0.80;0.70;;;;;;;4.21;84.68;101480.56;5014728;28;20480;-79
2020/12/02 11:12:57;;;;;;;2.40;2.20;;;;;;;4.27;85.18;101474.25;5024975;28;20448;-82
2020/12/02 11:15:43;;;;;;;3.90;2.30;;;;;;;4.40;84.40;101467.00;5021220;28;20490;-82
2020/12/02 11:18:37;;;;;;;7.33;2.00;;;;;;;4.45;83.80;101459.84;5023283;28;20836;-82
2020/12/02 11:21:16;;;;;;;1.20;1.10;;;;;;;4.52;83.21;101454.38;5024779;28;20429;-82
2020/12/02 11:24:07;;;;;;;5.60;2.60;;;;;;;4.57;83.29;101454.44;5023725;28;20444;-81
2020/12/02 11:26:37;;;;;;;4.73;2.10;;;;;;;4.66;83.90;101455.69;5026595;28;20452;-82
2020/12/02 11:29:06;;;;;;;2.63;2.43;;;;;;;4.76;84.27;101447.81;5024757;28;20977;-81
2020/12/02 11:31:50;;;;;;;4.70;1.97;;;;;;;4.87;83.79;101439.94;5023919;28;20436;-81
2020/12/02 11:34:34;;;;;;;1.07;1.07;;;;;;;4.87;82.94;101435.41;5023555;28;20425;-81
2020/12/02 11:37:07;;;;;;;1.70;1.60;;;;;;;4.92;82.01;101427.44;5024490;28;20499;-81
2020/12/02 11:39:43;;;;;;;1.43;1.23;;;;;;;5.00;81.66;101434.28;5022445;28;20884;-81
2020/12/02 11:42:19;;;;;;;5.03;1.40;;;;;;;5.04;81.09;101428.16;5024260;28;20498;-82
2020/12/02 11:44:54;;;;;;;2.97;1.23;;;;;;;5.15;80.88;101434.53;5025302;28;20424;-81
2020/12/02 11:47:30;;;;;;;1.33;1.20;;;;;;;5.15;80.71;101431.03;5027200;28;20472;-81